Time;durP1;ratioP1;P1;durP2;ratioP2;P2;SDS_P1;SDS_P2;PMS_P1;PMS_P2;Temp;Humidity;BMP_temperature;BMP_pressure;BME280_temperature;BME280_humidity;BME280_pressure;Samples;Min_cycle;Max_cycle;Signal;HPM_P1;HPM_P2
2022/11/19 00:03:31;;;;;;;30.35;25.80;;;;;;;;;;10261880;28;20060;-60
2022/11/19 00:08:29;;;;;;;13.55;12.25;;;;;;;;;;10261953;28;20498;-61
2022/11/19 00:13:27;;;;;;;17.85;16.02;;;;;;;;;;10269265;28;20057;-61
2022/11/19 00:18:27;;;;;;;17.90;16.08;;;;;;;;;;10274598;28;20441;-61
2022/11/19 00:23:25;;;;;;;17.88;15.98;;;;;;;;;;10277033;28;20562;-61
2022/11/19 00:28:23;;;;;;;16.92;14.82;;;;;;;;;;10275709;28;20564;-61
2022/11/19 00:33:21;;;;;;;92.38;69.70;;;;;;;;;;10270202;28;20044;-60
2022/11/19 00:38:21;;;;;;;21.08;16.77;;;;;;;;;;10274399;28;20049;-60
2022/11/19 00:48:31;;;;;;;22.98;19.52;;;;;;;;;;10231880;28;20077;-61
2022/11/19 00:53:31;;;;;;;25.83;22.42;;;;;;;;;;10254412;28;20053;-60
2022/11/19 00:58:29;;;;;;;27.52;22.42;;;;;;;;;;10271712;28;20518;-61
2022/11/19 01:03:27;;;;;;;24.67;22.17;;;;;;;;;;10275476;28;20041;-61
2022/11/19 01:08:26;;;;;;;28.20;23.25;;;;;;;;;;10261527;28;20077;-61
2022/11/19 01:13:35;;;;;;;30.27;24.33;;;;;;;;;;10274294;28;20057;-61
2022/11/19 01:18:33;;;;;;;28.13;23.42;;;;;;;;;;10275006;28;20048;-60
2022/11/19 01:23:32;;;;;;;26.83;23.92;;;;;;;;;;10269232;28;20087;-60
2022/11/19 01:28:32;;;;;;;32.63;23.10;;;;;;;;;;10274765;28;20499;-60
2022/11/19 01:33:30;;;;;;;27.13;23.15;;;;;;;;;;10270128;28;20045;-61
2022/11/19 01:38:28;;;;;;;92.82;62.92;;;;;;;;;;10256040;28;20061;-60
2022/11/19 01:43:41;;;;;;;27.35;24.42;;;;;;;;;;10252790;28;20048;-60
2022/11/19 01:48:40;;;;;;;27.60;24.65;;;;;;;;;;10273437;28;20091;-60
2022/11/19 01:53:39;;;;;;;23.80;21.30;;;;;;;;;;10273814;28;20076;-60
2022/11/19 01:58:39;;;;;;;27.45;22.92;;;;;;;;;;10274203;28;20044;-61
2022/11/19 02:03:39;;;;;;;27.33;22.63;;;;;;;;;;10272594;28;20139;-61
2022/11/19 02:08:39;;;;;;;22.13;19.85;;;;;;;;;;10260564;28;20045;-61
2022/11/19 02:13:39;;;;;;;30.08;24.50;;;;;;;;;;10248753;28;20375;-61
2022/11/19 02:18:43;;;;;;;23.27;20.98;;;;;;;;;;10239125;28;20419;-63
2022/11/19 02:24:02;;;;;;;24.73;21.98;;;;;;;;;;10248831;28;20052;-60
2022/11/19 02:29:07;;;;;;;23.02;20.63;;;;;;;;;;10272269;28;20100;-62
2022/11/19 02:34:09;;;;;;;22.00;19.70;;;;;;;;;;10271934;28;20559;-62
2022/11/19 02:39:11;;;;;;;22.40;20.10;;;;;;;;;;10267287;28;20545;-61
2022/11/19 02:49:41;;;;;;;21.38;16.90;;;;;;;;;;10270697;28;20075;-61
2022/11/19 02:54:39;;;;;;;18.35;16.33;;;;;;;;;;10259862;28;20060;-61
2022/11/19 03:04:57;;;;;;;17.40;14.90;;;;;;;;;;10264545;28;20608;-62
2022/11/19 03:09:56;;;;;;;16.50;14.73;;;;;;;;;;10267517;28;20609;-61
2022/11/19 03:20:17;;;;;;;16.05;14.45;;;;;;;;;;10234440;28;20045;-61
2022/11/19 03:25:18;;;;;;;14.57;13.02;;;;;;;;;;10263032;28;20053;-61
2022/11/19 03:30:18;;;;;;;15.32;13.77;;;;;;;;;;10265646;28;20069;-62
2022/11/19 03:35:20;;;;;;;15.20;13.70;;;;;;;;;;10248277;28;20072;-61
2022/11/19 03:40:19;;;;;;;14.85;13.45;;;;;;;;;;10233999;28;20132;-61
2022/11/19 03:45:19;;;;;;;14.57;13.05;;;;;;;;;;10259081;28;20065;-62
2022/11/19 03:50:21;;;;;;;14.20;12.70;;;;;;;;;;10269165;28;20073;-61
2022/11/19 03:55:21;;;;;;;13.48;12.02;;;;;;;;;;10277350;28;20407;-61
2022/11/19 04:00:19;;;;;;;13.75;12.30;;;;;;;;;;10277477;28;20065;-60
2022/11/19 04:05:18;;;;;;;12.68;11.45;;;;;;;;;;10277134;28;20443;-62
2022/11/19 04:10:17;;;;;;;11.73;10.63;;;;;;;;;;10274853;28;20423;-61
2022/11/19 04:15:15;;;;;;;13.20;10.77;;;;;;;;;;10276478;28;20499;-60
2022/11/19 04:20:14;;;;;;;11.55;9.30;;;;;;;;;;10276786;28;20061;-60
2022/11/19 04:25:13;;;;;;;11.35;10.20;;;;;;;;;;10276414;28;20072;-60
2022/11/19 04:30:12;;;;;;;11.35;9.15;;;;;;;;;;10274872;28;20068;-60
2022/11/19 04:35:11;;;;;;;10.27;9.27;;;;;;;;;;10275845;28;20190;-60
2022/11/19 04:40:09;;;;;;;12.20;11.00;;;;;;;;;;10275686;28;20064;-60
2022/11/19 04:45:10;;;;;;;11.85;10.70;;;;;;;;;;10275699;28;20033;-60
2022/11/19 04:50:09;;;;;;;10.88;9.77;;;;;;;;;;10275180;28;20057;-61
2022/11/19 04:55:07;;;;;;;13.50;9.98;;;;;;;;;;10275232;28;20032;-61
2022/11/19 05:00:06;;;;;;;11.18;10.07;;;;;;;;;;10272518;28;20041;-62
2022/11/19 05:05:06;;;;;;;11.07;9.93;;;;;;;;;;10253604;28;20073;-59
2022/11/19 05:10:05;;;;;;;12.93;11.63;;;;;;;;;;10249429;28;20075;-60
2022/11/19 05:15:03;;;;;;;13.27;12.02;;;;;;;;;;10270417;28;20080;-60
2022/11/19 05:20:02;;;;;;;12.20;11.00;;;;;;;;;;10271543;28;21697;-61
2022/11/19 05:25:01;;;;;;;13.15;11.85;;;;;;;;;;10258195;28;20065;-61
2022/11/19 05:29:59;;;;;;;11.90;10.77;;;;;;;;;;10273690;28;20075;-61
2022/11/19 05:34:58;;;;;;;12.80;11.60;;;;;;;;;;10267038;28;20064;-61
2022/11/19 05:39:56;;;;;;;13.48;12.07;;;;;;;;;;10274815;28;20335;-61
2022/11/19 05:44:55;;;;;;;13.85;12.38;;;;;;;;;;10276183;28;20111;-60
2022/11/19 05:49:53;;;;;;;11.75;10.55;;;;;;;;;;10278114;28;20072;-61
2022/11/19 05:54:52;;;;;;;10.98;9.73;;;;;;;;;;10268152;28;20037;-60
2022/11/19 05:59:50;;;;;;;11.48;9.40;;;;;;;;;;10277802;28;20052;-61
2022/11/19 06:04:49;;;;;;;9.90;8.90;;;;;;;;;;10265768;28;20427;-60
2022/11/19 06:09:48;;;;;;;11.35;10.27;;;;;;;;;;10271129;28;20510;-61
2022/11/19 06:14:46;;;;;;;14.05;11.70;;;;;;;;;;10265938;28;20518;-61
2022/11/19 06:19:44;;;;;;;11.65;9.98;;;;;;;;;;10271914;28;20083;-61
2022/11/19 06:24:43;;;;;;;11.27;10.18;;;;;;;;;;10261899;28;20079;-61
2022/11/19 06:29:42;;;;;;;14.07;11.70;;;;;;;;;;10268390;28;20072;-61
2022/11/19 06:34:40;;;;;;;13.95;12.60;;;;;;;;;;10273173;28;20422;-60
2022/11/19 06:39:38;;;;;;;11.88;10.40;;;;;;;;;;10261252;28;20084;-60
2022/11/19 06:44:38;;;;;;;10.95;9.93;;;;;;;;;;10275649;28;20055;-62
2022/11/19 06:49:36;;;;;;;14.10;12.55;;;;;;;;;;10268519;28;20080;-61
2022/11/19 06:54:34;;;;;;;12.15;10.60;;;;;;;;;;10263954;28;20076;-60
2022/11/19 06:59:38;;;;;;;12.40;10.90;;;;;;;;;;10273471;28;20068;-61
2022/11/19 07:04:37;;;;;;;9.75;8.80;;;;;;;;;;10270314;28;20506;-61
2022/11/19 07:09:35;;;;;;;11.52;10.45;;;;;;;;;;10264693;28;20071;-62
2022/11/19 07:14:34;;;;;;;11.63;10.52;;;;;;;;;;10267310;28;20084;-61
2022/11/19 07:19:34;;;;;;;12.27;11.07;;;;;;;;;;10253866;28;20517;-60
2022/11/19 07:24:32;;;;;;;12.55;11.30;;;;;;;;;;10247716;28;20080;-61
2022/11/19 07:29:30;;;;;;;11.50;10.05;;;;;;;;;;10249932;28;20075;-61
2022/11/19 07:34:28;;;;;;;9.77;8.98;;;;;;;;;;10266284;28;20056;-60
2022/11/19 07:39:28;;;;;;;12.50;10.80;;;;;;;;;;10264470;28;20073;-60
2022/11/19 09:41:52;;;;;;;9.50;8.43;;;;;;;;;;10271893;28;20080;-61
2022/11/19 09:46:57;;;;;;;21.60;17.15;;;;;;;;;;10265018;28;20072;-61
2022/11/19 09:51:57;;;;;;;6.38;5.78;;;;;;;;;;10257598;28;20675;-60
2022/11/19 09:56:58;;;;;;;8.55;6.97;;;;;;;;;;10264589;28;20076;-61
2022/11/19 10:02:01;;;;;;;12.38;9.25;;;;;;;;;;10271621;28;20486;-61
2022/11/19 10:07:06;;;;;;;5.35;4.75;;;;;;;;;;10272168;28;20580;-59
2022/11/19 10:12:19;;;;;;;7.65;6.28;;;;;;;;;;10269852;28;20073;-60
2022/11/19 10:17:22;;;;;;;15.05;7.53;;;;;;;;;;10271238;28;20088;-61
2022/11/19 10:22:22;;;;;;;7.30;6.35;;;;;;;;;;10267747;28;20049;-61
2022/11/19 10:27:25;;;;;;;23.85;16.92;;;;;;;;;;10261531;28;20076;-59
2022/11/19 10:32:27;;;;;;;8.93;6.20;;;;;;;;;;10272571;28;20080;-59
2022/11/19 10:37:29;;;;;;;7.82;6.57;;;;;;;;;;10270941;28;20068;-60
2022/11/19 10:42:30;;;;;;;8.35;6.47;;;;;;;;;;10271990;28;20069;-60
2022/11/19 10:47:30;;;;;;;9.52;8.52;;;;;;;;;;10267521;28;20508;-59
2022/11/19 10:52:30;;;;;;;8.63;7.47;;;;;;;;;;10268934;28;20087;-60
2022/11/19 10:57:31;;;;;;;9.38;7.22;;;;;;;;;;10271347;28;20083;-59
2022/11/19 11:02:32;;;;;;;6.57;5.97;;;;;;;;;;10268427;28;20059;-59
2022/11/19 11:07:53;;;;;;;6.60;6.00;;;;;;;;;;10270323;28;20506;-60
2022/11/19 11:18:10;;;;;;;5.28;4.78;;;;;;;;;;10263371;28;20061;-60
2022/11/19 11:23:10;;;;;;;8.63;7.47;;;;;;;;;;10264076;28;20057;-60
2022/11/19 11:28:12;;;;;;;8.98;8.07;;;;;;;;;;10248830;28;20080;-60
2022/11/19 11:33:31;;;;;;;7.43;6.78;;;;;;;;;;10235909;28;20072;-61
2022/11/19 11:38:30;;;;;;;7.00;6.30;;;;;;;;;;10242584;28;20123;-60
2022/11/19 11:43:30;;;;;;;7.40;6.70;;;;;;;;;;10260862;28;20076;-61
2022/11/19 11:48:33;;;;;;;13.98;11.00;;;;;;;;;;10248028;28;20080;-60
2022/11/19 11:53:32;;;;;;;10.30;5.35;;;;;;;;;;10233506;28;20488;-61
2022/11/19 11:58:32;;;;;;;7.15;4.97;;;;;;;;;;10245102;28;20064;-61
2022/11/19 12:03:33;;;;;;;4.60;4.20;;;;;;;;;;10260862;28;20391;-61
2022/11/19 12:08:46;;;;;;;5.63;4.53;;;;;;;;;;10266440;28;20085;-60
2022/11/19 12:13:55;;;;;;;9.15;5.35;;;;;;;;;;10255140;28;20069;-60
2022/11/19 12:19:00;;;;;;;6.93;6.20;;;;;;;;;;10240122;28;20081;-60
2022/11/19 12:24:05;;;;;;;8.20;4.70;;;;;;;;;;10254661;28;20038;-58
2022/11/19 12:29:12;;;;;;;6.65;3.85;;;;;;;;;;10275575;28;20073;-60
2022/11/19 12:34:34;;;;;;;5.25;4.53;;;;;;;;;;10256497;28;20076;-60
2022/11/19 12:39:36;;;;;;;8.85;5.10;;;;;;;;;;10247108;28;20072;-60
2022/11/19 12:44:39;;;;;;;6.75;5.70;;;;;;;;;;10261350;28;20087;-62
2022/11/19 12:49:55;;;;;;;5.85;5.30;;;;;;;;;;10249998;28;20079;-61
2022/11/19 12:54:58;;;;;;;10.38;7.55;;;;;;;;;;10267688;28;20072;-61
2022/11/19 13:00:11;;;;;;;10.00;9.10;;;;;;;;;;10266921;28;20065;-61
2022/11/19 13:05:12;;;;;;;6.95;5.97;;;;;;;;;;10269024;28;20091;-60
2022/11/19 13:10:14;;;;;;;7.03;5.80;;;;;;;;;;10266992;28;20053;-61
2022/11/19 13:15:17;;;;;;;9.90;8.93;;;;;;;;;;10250040;28;20524;-60
2022/11/19 13:20:18;;;;;;;8.63;7.82;;;;;;;;;;10246649;28;20068;-61
2022/11/19 13:25:20;;;;;;;16.48;13.43;;;;;;;;;;10266151;28;20081;-61
2022/11/19 13:30:21;;;;;;;13.52;11.98;;;;;;;;;;10271819;28;20072;-60
2022/11/19 13:35:21;;;;;;;7.15;6.45;;;;;;;;;;10270929;28;20132;-60
2022/11/19 13:40:25;;;;;;;14.20;9.55;;;;;;;;;;10271244;28;20474;-61
2022/11/19 13:45:26;;;;;;;35.33;24.50;;;;;;;;;;10271999;28;20087;-61
2022/11/19 13:50:26;;;;;;;32.78;23.80;;;;;;;;;;10271305;28;20084;-60
2022/11/19 13:55:32;;;;;;;14.88;13.27;;;;;;;;;;10271255;28;20459;-60
2022/11/19 14:00:32;;;;;;;17.73;14.25;;;;;;;;;;10271403;28;20091;-60
2022/11/19 14:05:44;;;;;;;29.80;21.48;;;;;;;;;;10270667;28;20060;-60
2022/11/19 14:10:45;;;;;;;32.30;23.10;;;;;;;;;;10257767;28;20145;-61
2022/11/19 14:26:57;;;;;;;91.20;75.50;;;;;;;;;;10269904;28;20052;-61
2022/11/19 14:32:14;;;;;;;66.53;57.97;;;;;;;;;;10269639;28;20083;-61
2022/11/19 14:37:17;;;;;;;70.43;55.63;;;;;;;;;;10269809;28;20089;-60
2022/11/19 14:42:17;;;;;;;61.80;49.10;;;;;;;;;;10269741;28;20091;-61
2022/11/19 14:47:31;;;;;;;29.65;24.65;;;;;;;;;;10270220;28;20076;-60
2022/11/19 14:52:33;;;;;;;24.33;18.77;;;;;;;;;;10270233;28;20080;-61
2022/11/19 14:57:32;;;;;;;22.05;16.80;;;;;;;;;;10269682;28;20069;-61
2022/11/19 15:02:33;;;;;;;21.48;18.88;;;;;;;;;;10269750;28;20069;-60
2022/11/19 15:07:37;;;;;;;43.97;28.30;;;;;;;;;;10270160;28;20510;-61
2022/11/19 15:12:46;;;;;;;38.67;29.70;;;;;;;;;;10269894;28;20087;-60
2022/11/19 15:17:45;;;;;;;21.27;18.88;;;;;;;;;;10270082;28;20165;-60
2022/11/19 15:22:50;;;;;;;17.40;13.55;;;;;;;;;;10269486;28;20095;-60
2022/11/19 15:27:53;;;;;;;36.25;32.45;;;;;;;;;;10263357;28;20088;-60
2022/11/19 15:33:09;;;;;;;33.90;26.63;;;;;;;;;;10261961;28;20073;-60
2022/11/19 15:38:10;;;;;;;28.02;23.90;;;;;;;;;;10265080;28;20080;-61
2022/11/19 15:43:22;;;;;;;26.92;20.63;;;;;;;;;;10268534;28;20053;-61
2022/11/19 15:48:23;;;;;;;37.58;29.73;;;;;;;;;;10272883;28;20040;-61
2022/11/19 15:53:23;;;;;;;33.88;26.83;;;;;;;;;;10276681;28;20407;-61
2022/11/19 15:58:24;;;;;;;54.78;44.90;;;;;;;;;;10274615;28;20150;-61
2022/11/19 16:03:23;;;;;;;69.50;55.00;;;;;;;;;;10275650;28;20068;-61
2022/11/19 16:08:23;;;;;;;65.40;44.35;;;;;;;;;;10276584;28;20122;-61
2022/11/19 16:18:45;;;;;;;30.20;22.75;;;;;;;;;;10280763;28;20081;-60
2022/11/19 16:28:56;;;;;;;21.65;15.50;;;;;;;;;;10272707;28;20053;-60
2022/11/19 16:33:55;;;;;;;20.10;18.00;;;;;;;;;;10275891;28;20171;-61
2022/11/19 16:38:55;;;;;;;76.45;46.70;;;;;;;;;;10273289;28;20087;-60
2022/11/19 16:43:54;;;;;;;48.97;35.88;;;;;;;;;;10273732;28;20065;-60
2022/11/19 16:48:53;;;;;;;23.27;18.73;;;;;;;;;;10273713;28;20076;-60
2022/11/19 16:53:52;;;;;;;40.95;25.85;;;;;;;;;;10272274;28;20080;-59
2022/11/19 16:58:57;;;;;;;35.95;25.63;;;;;;;;;;10274373;28;20533;-61
2022/11/19 17:04:02;;;;;;;35.65;29.02;;;;;;;;;;10274055;28;20473;-61
2022/11/19 17:09:00;;;;;;;;;;;;;;;;;;10273351;28;20076;-61
2022/11/19 17:14:03;;;;;;;31.95;22.20;;;;;;;;;;10274011;28;19956;-62
2022/11/19 17:19:12;;;;;;;42.25;27.63;;;;;;;;;;10274130;28;20081;-61
2022/11/19 17:24:12;;;;;;;33.20;24.85;;;;;;;;;;10270421;28;20048;-61
2022/11/19 17:29:19;;;;;;;23.15;18.73;;;;;;;;;;10269818;28;20091;-61
2022/11/19 17:34:26;;;;;;;23.48;18.17;;;;;;;;;;10268916;28;20068;-61
2022/11/19 17:39:25;;;;;;;23.65;18.48;;;;;;;;;;10269093;28;20506;-61
2022/11/19 17:44:33;;;;;;;25.90;19.13;;;;;;;;;;10272169;28;20067;-62
2022/11/19 17:49:32;;;;;;;21.30;16.48;;;;;;;;;;10268099;28;20072;-61
2022/11/19 17:54:30;;;;;;;20.10;17.95;;;;;;;;;;10271951;28;20077;-61
2022/11/19 17:59:30;;;;;;;12.43;11.13;;;;;;;;;;10267880;28;20107;-62
2022/11/19 18:04:28;;;;;;;19.80;16.67;;;;;;;;;;10271077;28;20041;-61
2022/11/19 18:09:27;;;;;;;23.52;19.88;;;;;;;;;;10270186;28;20048;-61
2022/11/19 18:14:33;;;;;;;21.08;17.25;;;;;;;;;;10271328;28;20079;-59
2022/11/19 18:19:32;;;;;;;20.73;15.10;;;;;;;;;;10271536;28;20084;-60
2022/11/19 18:24:30;;;;;;;16.80;13.48;;;;;;;;;;10262926;28;20044;-61
2022/11/19 18:29:29;;;;;;;14.90;11.38;;;;;;;;;;10234445;28;20529;-61
2022/11/19 18:34:29;;;;;;;21.75;15.10;;;;;;;;;;10252264;28;20544;-61
2022/11/19 18:39:27;;;;;;;24.25;16.73;;;;;;;;;;10269462;28;20467;-60
2022/11/19 18:44:33;;;;;;;24.00;18.13;;;;;;;;;;10269832;28;20067;-61
2022/11/19 18:49:33;;;;;;;18.92;14.15;;;;;;;;;;10270023;28;20048;-61
2022/11/19 18:54:32;;;;;;;20.02;15.38;;;;;;;;;;10268966;28;20072;-60
2022/11/19 18:59:30;;;;;;;11.35;8.80;;;;;;;;;;10269166;28;20072;-61
2022/11/19 19:04:29;;;;;;;17.08;12.70;;;;;;;;;;10269275;28;20060;-60
2022/11/19 19:09:28;;;;;;;14.70;11.25;;;;;;;;;;10269107;28;20053;-61
2022/11/19 19:14:27;;;;;;;34.67;23.15;;;;;;;;;;10268095;28;20079;-61
2022/11/19 19:19:25;;;;;;;37.38;32.78;;;;;;;;;;10268590;28;20077;-61
2022/11/19 19:24:24;;;;;;;18.13;11.52;;;;;;;;;;10268254;28;20084;-61
2022/11/19 19:29:23;;;;;;;17.40;11.18;;;;;;;;;;10267997;28;20073;-61
2022/11/19 19:34:22;;;;;;;23.48;14.00;;;;;;;;;;10268044;28;20076;-59
2022/11/19 19:39:20;;;;;;;18.98;11.32;;;;;;;;;;10267728;28;20086;-61
2022/11/19 19:44:19;;;;;;;11.55;7.53;;;;;;;;;;10268424;28;20445;-61
2022/11/19 19:49:19;;;;;;;21.45;14.10;;;;;;;;;;10267665;28;20537;-61
2022/11/19 19:54:17;;;;;;;15.02;11.80;;;;;;;;;;10267724;28;20293;-62
2022/11/19 19:59:16;;;;;;;21.13;14.00;;;;;;;;;;10267669;28;20076;-60
2022/11/19 20:04:14;;;;;;;15.70;11.57;;;;;;;;;;10267387;28;20187;-61
2022/11/19 20:09:14;;;;;;;21.00;12.63;;;;;;;;;;10267579;28;20513;-60
2022/11/19 20:14:12;;;;;;;26.50;18.13;;;;;;;;;;10267849;28;20087;-61
2022/11/19 20:19:12;;;;;;;14.18;12.38;;;;;;;;;;10267183;28;20044;-60
2022/11/19 20:24:11;;;;;;;18.20;11.85;;;;;;;;;;10265136;28;20065;-61
2022/11/19 20:29:13;;;;;;;23.70;18.90;;;;;;;;;;10267891;28;20068;-60
2022/11/19 20:34:11;;;;;;;16.58;13.15;;;;;;;;;;10265914;28;20125;-60
2022/11/19 20:39:10;;;;;;;24.23;15.02;;;;;;;;;;10271592;28;20061;-61
2022/11/19 20:44:22;;;;;;;22.67;15.95;;;;;;;;;;10271563;28;20548;-60
2022/11/19 20:49:22;;;;;;;20.65;14.25;;;;;;;;;;10272355;28;20068;-61
2022/11/19 20:54:21;;;;;;;15.77;11.88;;;;;;;;;;10273690;28;20069;-61
2022/11/19 20:59:20;;;;;;;14.38;11.60;;;;;;;;;;10273391;28;20037;-61
2022/11/19 21:04:19;;;;;;;13.65;11.30;;;;;;;;;;10273700;28;20099;-61
2022/11/19 21:09:19;;;;;;;13.65;11.75;;;;;;;;;;10272923;28;20081;-61
2022/11/19 21:14:17;;;;;;;13.43;11.98;;;;;;;;;;10274662;28;20077;-61
2022/11/19 21:19:16;;;;;;;17.55;10.57;;;;;;;;;;10254402;28;20072;-60
2022/11/19 21:24:14;;;;;;;12.30;10.93;;;;;;;;;;10237547;28;20049;-61
2022/11/19 21:29:13;;;;;;;12.63;11.25;;;;;;;;;;10254011;28;20430;-61
2022/11/19 21:34:13;;;;;;;12.38;11.07;;;;;;;;;;10270274;28;20065;-61
2022/11/19 21:39:12;;;;;;;14.27;12.52;;;;;;;;;;10254263;28;20480;-60
2022/11/19 21:44:11;;;;;;;13.50;12.20;;;;;;;;;;10236560;28;20077;-61
2022/11/19 21:49:18;;;;;;;14.52;12.15;;;;;;;;;;10253395;28;20075;-61
2022/11/19 21:54:17;;;;;;;16.35;13.07;;;;;;;;;;10271151;28;20084;-60
2022/11/19 21:59:16;;;;;;;15.80;12.98;;;;;;;;;;10270895;28;20069;-61
2022/11/19 22:04:14;;;;;;;13.25;11.95;;;;;;;;;;10267922;28;20072;-60
2022/11/19 22:09:14;;;;;;;17.63;15.07;;;;;;;;;;10270726;28;20049;-60
2022/11/19 22:14:12;;;;;;;18.00;16.20;;;;;;;;;;10267080;28;20076;-61
2022/11/19 22:19:11;;;;;;;20.25;15.02;;;;;;;;;;10267129;28;20068;-61
2022/11/19 22:24:09;;;;;;;15.23;13.73;;;;;;;;;;10267895;28;20065;-61
2022/11/19 22:29:09;;;;;;;16.35;14.52;;;;;;;;;;10267430;28;20060;-61
2022/11/19 22:34:07;;;;;;;17.33;15.45;;;;;;;;;;10265338;28;20076;-62
2022/11/19 22:39:05;;;;;;;16.00;14.35;;;;;;;;;;10271012;28;20045;-61
2022/11/19 22:44:04;;;;;;;26.73;22.52;;;;;;;;;;10268776;28;20088;-61
2022/11/19 22:49:04;;;;;;;16.98;15.25;;;;;;;;;;10268502;28;20075;-60
2022/11/19 22:54:02;;;;;;;18.10;16.17;;;;;;;;;;10268381;28;20076;-61
2022/11/19 22:59:01;;;;;;;20.23;17.10;;;;;;;;;;10267247;28;20057;-60
2022/11/19 23:04:00;;;;;;;19.83;17.00;;;;;;;;;;10259763;28;20065;-61
2022/11/19 23:09:00;;;;;;;21.52;19.40;;;;;;;;;;10263031;28;20065;-60
2022/11/19 23:13:58;;;;;;;24.40;21.67;;;;;;;;;;10255358;28;20081;-61
2022/11/19 23:18:56;;;;;;;24.90;22.40;;;;;;;;;;10267933;28;20091;-60
2022/11/19 23:23:55;;;;;;;24.88;21.92;;;;;;;;;;10268016;28;20049;-62
2022/11/19 23:28:55;;;;;;;29.48;26.08;;;;;;;;;;10269689;28;20084;-60
2022/11/19 23:33:53;;;;;;;27.23;24.17;;;;;;;;;;10255350;28;20087;-60
2022/11/19 23:38:56;;;;;;;28.20;25.20;;;;;;;;;;10265826;28;20714;-61
2022/11/19 23:43:56;;;;;;;28.83;25.92;;;;;;;;;;10228692;28;1116147;-59
2022/11/19 23:48:55;;;;;;;29.35;26.08;;;;;;;;;;10238600;28;20044;-61
2022/11/19 23:53:53;;;;;;;29.58;25.98;;;;;;;;;;10267585;28;20100;-60
2022/11/19 23:58:52;;;;;;;33.88;28.13;;;;;;;;;;10267465;28;20173;-61
